Camellia — VRCP9 — position and weather

sailwx.info

Track history (hours):
 
Tides and Currents Weather Stations Pressure Air Temp Water Temp Dewpoint Dewpoint Depression Visibility Wind Speed Wind Dir Waves Ship Positions

Camellia

Last reported at 2017-Oct-14 23:03 UTC. Time now 2017-Oct-17 12:00 UTC.
Position N 49°25' W 010°44'.

Length 222 m; draft 10.5 m.

Type: Ship (hazmat cat A). MMSI: 477791900.

Date/timePositionNaut miles runAvg speedWind from/ knotsBaromVisibWave heightAir tempDewpointWater temp
2017-Oct-14 23:03N 49°25' W 010°44'415.2
2017-Oct-14 22:48N 49°25' W 010°38'515.4
2017-Oct-14 22:29N 49°26' W 010°31'3815.7
2017-Oct-14 20:03N 49°32' W 009°33'115.9
2017-Oct-14 20:00N 49°32' W 009°32'4916.2
2017-Oct-14 16:58N 49°36' W 008°16'1716.0
2017-Oct-14 15:53N 49°38' W 007°49'715.9
2017-Oct-14 15:27N 49°39' W 007°39'915.9
2017-Oct-14 14:52N 49°40' W 007°25'616.0
2017-Oct-14 14:30N 49°41' W 007°16'815.8
2017-Oct-14 14:00N 49°41' W 007°03'2115.7
2017-Oct-14 12:39N 49°43' W 006°31'315.4
2017-Oct-14 12:27N 49°43' W 006°26'815.4
2017-Oct-14 11:58N 49°43' W 006°15'715.5
2017-Oct-14 11:30N 49°43' W 006°04'815.7
2017-Oct-14 11:00N 49°44' W 005°51'815.9
2017-Oct-14 10:30N 49°45' W 005°39'816.1
2017-Oct-14 10:00N 49°45' W 005°27'816.1
2017-Oct-14 09:30N 49°46' W 005°15'815.8
2017-Oct-14 09:00N 49°47' W 005°02'816.4
2017-Oct-14 08:30N 49°48' W 004°50'816.6
2017-Oct-14 08:00N 49°50' W 004°37'816.9
2017-Oct-14 07:30N 49°51' W 004°24'917.1
2017-Oct-14 07:00N 49°53' W 004°11'917.4
2017-Oct-14 06:30N 49°54' W 003°58'918.7
2017-Oct-14 06:00N 49°56' W 003°44'816.9
2017-Oct-14 05:30N 49°57' W 003°31'816.6
2017-Oct-14 05:00N 49°58' W 003°18'816.3
2017-Oct-14 04:30N 49°59' W 003°05'816.0
2017-Oct-14 04:00N 50°01' W 002°53'815.8
2017-Oct-14 03:30N 50°03' W 002°41'815.3
2017-Oct-14 03:00N 50°05' W 002°30'714.9
2017-Oct-14 02:30N 50°07' W 002°18'814.7
2017-Oct-14 01:59N 50°09' W 002°07'1314.8
2017-Oct-14 01:05N 50°12' W 001°47'215.0
2017-Oct-14 00:55N 50°13' W 001°43'615.4
2017-Oct-14 00:30N 50°15' W 001°34'815.9
2017-Oct-14 00:00N 50°17' W 001°22'816.5
2017-Oct-13 23:30N 50°19' W 001°09'917.2
2017-Oct-13 22:58N 50°22' W 000°55'917.6
2017-Oct-13 22:27N 50°24' W 000°41'917.8
2017-Oct-13 21:58N 50°26' W 000°29'817.8
2017-Oct-13 21:30N 50°28' W 000°16'917.8
2017-Oct-13 21:00N 50°31' W 000°02'917.6
2017-Oct-13 20:30N 50°33' E 000°11'917.5
2017-Oct-13 20:00N 50°35' E 000°24'816.7
2017-Oct-13 19:30N 50°38' E 000°36'816.5
2017-Oct-13 19:00N 50°43' E 000°47'815.8
2017-Oct-13 18:30N 50°48' E 000°56'815.3
2017-Oct-13 18:00N 50°53' E 001°06'714.9
2017-Oct-13 17:30N 50°58' E 001°15'714.5
2017-Oct-13 17:00N 51°02' E 001°24'714.5
2017-Oct-13 16:30N 51°07' E 001°33'714.9
2017-Oct-13 16:00N 51°11' E 001°42'815.6
2017-Oct-13 15:30N 51°17' E 001°50'816.3
2017-Oct-13 15:00N 51°24' E 001°57'815.3
2017-Oct-13 14:31N 51°23' E 002°09'815.9
2017-Oct-13 14:00N 51°22' E 002°22'816.5
2017-Oct-13 13:30N 51°23' E 002°35'713.6
2017-Oct-13 13:00N 51°22' E 002°46'816.1
2017-Oct-13 12:31N 51°23' E 002°59'918.4
2017-Oct-13 12:01N 51°24' E 003°13'918.9
2017-Oct-13 11:31N 51°25' E 003°28'611.1
2017-Oct-13 11:00N 51°26' E 003°37'713.0
2017-Oct-13 10:30N 51°22' E 003°45'713.9
2017-Oct-13 10:01N 51°23' E 003°56'4 8.0
2017-Oct-13 09:31N 51°24' E 004°02'612.5
2017-Oct-13 09:01N 51°24' E 004°12'4 6.8
2017-Oct-13 08:29N 51°21' E 004°16'0 0.0
2017-Oct-13 08:01N 51°21' E 004°16'0 0.0
2017-Oct-13 07:31N 51°21' E 004°16'0 0.0
2017-Oct-13 07:01N 51°21' E 004°16'0 0.0
2017-Oct-13 06:31N 51°21' E 004°16'0 0.0
2017-Oct-13 06:01N 51°21' E 004°16'0 0.0
2017-Oct-13 05:31N 51°21' E 004°16'0 0.0
2017-Oct-13 05:01N 51°21' E 004°16'0 0.0
2017-Oct-13 04:31N 51°21' E 004°16'0 0.0
2017-Oct-13 03:59N 51°21' E 004°16'0 0.0
2017-Oct-13 03:31N 51°21' E 004°16'0 0.0
2017-Oct-13 03:01N 51°21' E 004°16'0 0.0
2017-Oct-13 02:31N 51°21' E 004°16'0 0.0
2017-Oct-13 02:01N 51°21' E 004°16'0 0.0
2017-Oct-13 01:31N 51°21' E 004°16'0 0.0
2017-Oct-13 01:01N 51°21' E 004°16'0 0.0
2017-Oct-13 00:31N 51°21' E 004°16'0 0.0
2017-Oct-13 00:00N 51°21' E 004°16'0 0.0
2017-Oct-12 23:30N 51°21' E 004°16'0 0.0
2017-Oct-12 23:01N 51°21' E 004°16'0 0.0
2017-Oct-12 22:31N 51°21' E 004°16'0 0.0
2017-Oct-12 22:01N 51°21' E 004°16'0 0.0
2017-Oct-12 21:30N 51°21' E 004°16'0 0.0
2017-Oct-12 21:00N 51°21' E 004°16'0 0.0
2017-Oct-12 20:30N 51°21' E 004°16'0 0.0
2017-Oct-12 20:00N 51°21' E 004°16'0 0.0
2017-Oct-12 19:28N 51°21' E 004°16'0 0.0
2017-Oct-12 19:00N 51°21' E 004°16'2 4.8
2017-Oct-12 18:30N 51°23' E 004°13'5 9.3
2017-Oct-12 18:00N 51°22' E 004°05'5 9.8
2017-Oct-12 17:30N 51°26' E 004°01'510.5
2017-Oct-12 17:00N 51°22' E 003°55'713.0
2017-Oct-12 16:31N 51°22' E 003°45'612.6
2017-Oct-12 16:00N 51°26' E 003°37'4 8.7
2017-Oct-12 15:30N 51°25' E 003°30'815.8
2017-Oct-12 15:00N 51°24' E 003°17'816.6
2017-Oct-12 14:30N 51°24' E 003°04'612.2
2017-Oct-12 14:00N 51°30' E 003°04'1218.3
2017-Oct-12 13:20N 51°41' E 003°12'3 7.8
2017-Oct-12 12:55N 51°45' E 003°13'2011.2
2017-Oct-12 11:07N 52°03' E 003°26'215.9
2017-Oct-12 11:00N 52°03' E 003°29'815.8
2017-Oct-12 10:30N 52°03' E 003°42'815.3
2017-Oct-12 10:00N 52°02' E 003°54'611.5
2017-Oct-12 09:31N 51°60' E 004°02'2 4.3
2017-Oct-12 09:00N 51°58' E 004°03'0 0.1
2017-Oct-12 08:29N 51°57' E 004°03'0 0.0
2017-Oct-12 07:59N 51°57' E 004°03'0 0.0
2017-Oct-12 07:29N 51°57' E 004°03'0 0.0
2017-Oct-12 06:59N 51°57' E 004°03'0 0.0
2017-Oct-12 06:29N 51°57' E 004°03'0 0.0
2017-Oct-12 05:59N 51°57' E 004°03'0 0.0
2017-Oct-12 05:29N 51°57' E 004°03'0 0.0
2017-Oct-12 04:59N 51°57' E 004°03'0 0.0
2017-Oct-12 04:29N 51°57' E 004°03'0 0.0
2017-Oct-12 03:59N 51°57' E 004°03'0 0.0
2017-Oct-12 03:29N 51°57' E 004°03'0 0.0
2017-Oct-12 02:59N 51°57' E 004°03'0 0.0
2017-Oct-12 02:29N 51°57' E 004°03'0 0.0
2017-Oct-12 01:59N 51°57' E 004°03'0 0.0
2017-Oct-12 01:29N 51°57' E 004°03'0 0.0
2017-Oct-12 00:59N 51°57' E 004°03'0 0.0
2017-Oct-12 00:29N 51°57' E 004°03'0 0.0
2017-Oct-11 23:59N 51°57' E 004°03'0 0.0
2017-Oct-11 23:29N 51°57' E 004°03'0 0.0
2017-Oct-11 22:59N 51°57' E 004°03'0 0.0
2017-Oct-11 22:29N 51°57' E 004°03'0 0.0
2017-Oct-11 21:59N 51°57' E 004°03'0 0.0
2017-Oct-11 21:29N 51°57' E 004°03'0 0.0
2017-Oct-11 20:59N 51°57' E 004°03'0 0.0
2017-Oct-11 20:29N 51°57' E 004°03'0 0.0
2017-Oct-11 19:59N 51°57' E 004°03'0 0.0
2017-Oct-11 19:29N 51°57' E 004°03'0 0.0
2017-Oct-11 18:59N 51°57' E 004°03'0 0.0
2017-Oct-11 18:29N 51°57' E 004°03'0 0.0
2017-Oct-11 17:59N 51°57' E 004°03'0 0.0
2017-Oct-11 17:29N 51°57' E 004°03'0 0.0
2017-Oct-11 16:59N 51°57' E 004°03'107 6.3
2017-Oct-11 00:01N 53°36' E 005°11'714.8
2017-Oct-10 23:30N 53°38' E 005°23'814.7
2017-Oct-10 22:57N 53°41' E 005°36'714.7
2017-Oct-10 22:29N 53°43' E 005°47'6815.8
2017-Oct-10 18:14N 53°60' E 007°38'415.6
2017-Oct-10 18:00N 53°57' E 007°42'714.4
2017-Oct-10 17:30N 53°52' E 007°51'714.8
2017-Oct-10 17:00N 53°51' E 008°03'1020.2
2017-Oct-10 16:30N 53°44' E 008°16'918.8
2017-Oct-10 16:00N 53°38' E 008°28'3 6.0
2017-Oct-10 15:31N 53°35' E 008°31'0 0.0
2017-Oct-10 14:58N 53°35' E 008°31'0 0.0
2017-Oct-10 13:58N 53°35' E 008°31'0 0.0
2017-Oct-10 13:28N 53°35' E 008°31'0 0.0
2017-Oct-10 12:58N 53°35' E 008°31'0 0.0
2017-Oct-10 12:28N 53°35' E 008°31'0 0.0
2017-Oct-10 11:58N 53°35' E 008°31'0 0.0
2017-Oct-10 11:28N 53°35' E 008°31'0 0.0
2017-Oct-10 10:58N 53°35' E 008°31'0 0.0
2017-Oct-10 10:28N 53°35' E 008°31'0 0.0
2017-Oct-10 09:58N 53°35' E 008°31'0 0.0
2017-Oct-10 09:28N 53°35' E 008°31'0 0.0
2017-Oct-10 08:58N 53°35' E 008°31'0 0.0
2017-Oct-10 08:28N 53°35' E 008°31'0 0.0
2017-Oct-10 07:58N 53°35' E 008°31'0 0.0
2017-Oct-10 07:28N 53°35' E 008°31'0 0.0
2017-Oct-10 06:58N 53°35' E 008°31'0 0.0
2017-Oct-10 06:28N 53°35' E 008°31'0 0.0
2017-Oct-10 05:58N 53°35' E 008°31'0 0.0
2017-Oct-10 05:28N 53°35' E 008°31'0 0.0
2017-Oct-10 04:58N 53°35' E 008°31'0 0.0
2017-Oct-10 04:28N 53°35' E 008°31'0 0.0
2017-Oct-10 03:58N 53°35' E 008°31'0 0.1
2017-Oct-10 03:28N 53°35' E 008°31'0 0.0
2017-Oct-10 02:58N 53°35' E 008°31'0 0.0
2017-Oct-10 02:28N 53°35' E 008°31'0 0.0
2017-Oct-10 01:58N 53°35' E 008°31'0 0.0
2017-Oct-10 01:28N 53°35' E 008°31'0 0.0
2017-Oct-10 00:58N 53°35' E 008°31'0 0.0
2017-Oct-10 00:28N 53°35' E 008°31'0 0.0
2017-Oct-09 23:58N 53°35' E 008°31'0 0.0
2017-Oct-09 23:28N 53°35' E 008°31'0 0.0
2017-Oct-09 22:58N 53°35' E 008°31'0 0.0
2017-Oct-09 22:28N 53°35' E 008°31'0 0.0
2017-Oct-09 21:58N 53°35' E 008°31'0 0.0
2017-Oct-09 21:28N 53°35' E 008°31'0 0.0
2017-Oct-09 20:58N 53°35' E 008°31'0 0.0
2017-Oct-09 20:28N 53°35' E 008°31'0 0.0
2017-Oct-09 19:58N 53°35' E 008°31'0 0.0
2017-Oct-09 19:28N 53°35' E 008°31'0 0.0
2017-Oct-09 18:58N 53°35' E 008°31'0 0.0
2017-Oct-09 18:28N 53°35' E 008°31'0 0.0
2017-Oct-09 17:58N 53°35' E 008°31'0 0.4
2017-Oct-09 17:30N 53°36' E 008°31'3 5.8
2017-Oct-09 17:00N 53°38' E 008°28'714.1
2017-Oct-09 16:30N 53°42' E 008°19'714.5
2017-Oct-09 16:00N 53°47' E 008°09'714.4
2017-Oct-09 15:30N 53°51' E 007°59'712.8
2017-Oct-09 14:58N 53°53' E 007°48'1 3.0
2017-Oct-09 14:30N 53°53' E 007°46'2 4.0
2017-Oct-09 13:59N 53°55' E 007°46'1 1.2
2017-Oct-09 13:08N 53°55' E 007°47'0 0.0
2017-Oct-09 12:47N 53°55' E 007°47'0 0.1
2017-Oct-09 12:29N 53°55' E 007°47'0 0.0
2017-Oct-09 11:59N 53°55' E 007°47'0 0.0
2017-Oct-09 10:41N 53°55' E 007°47'0 0.0
2017-Oct-09 10:20N 53°55' E 007°47'0 0.0
2017-Oct-09 09:59N 53°55' E 007°47'0 0.0
2017-Oct-09 09:29N 53°55' E 007°47'0 0.0
2017-Oct-09 08:47N 53°55' E 007°47'0 0.0
2017-Oct-09 08:29N 53°55' E 007°47'0 0.0
2017-Oct-09 07:59N 53°55' E 007°47'0 0.1
2017-Oct-09 07:29N 53°55' E 007°47'0 0.0
2017-Oct-09 06:59N 53°55' E 007°47'0 0.2
2017-Oct-09 06:29N 53°55' E 007°47'0 0.1
2017-Oct-09 05:56N 53°55' E 007°47'0 0.1
2017-Oct-09 05:29N 53°55' E 007°47'0 0.1
2017-Oct-09 04:59N 53°55' E 007°47'0 0.0
2017-Oct-09 04:29N 53°55' E 007°47'0 0.0
2017-Oct-09 03:59N 53°55' E 007°47'0 0.1
2017-Oct-09 03:29N 53°55' E 007°47'0 0.3
2017-Oct-09 02:59N 53°55' E 007°47'0 0.2
2017-Oct-09 02:23N 53°55' E 007°47'0 0.0
2017-Oct-09 01:56N 53°55' E 007°47'0 0.1
2017-Oct-09 01:29N 53°55' E 007°47'0 0.0
2017-Oct-09 00:53N 53°55' E 007°47'0 0.0
2017-Oct-09 00:29N 53°55' E 007°47'0 0.0
2017-Oct-08 23:59N 53°55' E 007°47'0 0.0
2017-Oct-08 23:20N 53°55' E 007°47'0 0.0
2017-Oct-08 22:59N 53°55' E 007°47'0 0.0
2017-Oct-08 22:29N 53°55' E 007°47'0 0.0
2017-Oct-08 21:59N 53°55' E 007°47'0 0.0
2017-Oct-08 21:29N 53°55' E 007°47'0 0.0
2017-Oct-08 20:56N 53°55' E 007°47'0 0.1
2017-Oct-08 20:29N 53°55' E 007°47'0 0.0
2017-Oct-08 19:59N 53°55' E 007°47'0 0.0
2017-Oct-08 19:29N 53°55' E 007°47'0 0.1
2017-Oct-08 18:41N 53°55' E 007°47'0 0.1
2017-Oct-08 18:26N 53°55' E 007°47'0 0.1
2017-Oct-08 17:17N 53°55' E 007°47'0 0.0
2017-Oct-08 14:44N 53°55' E 007°47'0 0.1
2017-Oct-08 14:29N 53°55' E 007°47'0 0.1
2017-Oct-08 13:59N 53°55' E 007°47'0 0.0
2017-Oct-08 13:29N 53°55' E 007°47'0 0.1
2017-Oct-08 12:59N 53°55' E 007°47'0 0.0
2017-Oct-08 12:29N 53°55' E 007°47'0 0.0
2017-Oct-08 11:59N 53°55' E 007°47'0 0.0
2017-Oct-08 11:23N 53°55' E 007°47'0 0.0
2017-Oct-08 10:59N 53°55' E 007°47'0 0.0
2017-Oct-08 10:29N 53°55' E 007°47'0 0.0
2017-Oct-08 09:59N 53°55' E 007°47'0 0.0
2017-Oct-08 09:29N 53°55' E 007°47'0 0.0
2017-Oct-08 08:59N 53°55' E 007°47'0 0.1
2017-Oct-08 08:29N 53°55' E 007°47'0 0.1
2017-Oct-08 07:56N 53°55' E 007°47'0 0.7
2017-Oct-08 07:30N 53°55' E 007°47'4 7.9
2017-Oct-08 06:58N 53°55' E 007°40'714.4
2017-Oct-08 06:30N 53°54' E 007°29'7114.9
2017-Oct-08 01:44N 53°36' E 005°33'315.0
2017-Oct-08 01:30N 53°34' E 005°27'815.1
2017-Oct-08 01:00N 53°32' E 005°16'815.2
2017-Oct-08 00:30N 53°29' E 005°03'815.3
2017-Oct-08 00:00N 53°26' E 004°51'714.2
2017-Oct-07 23:30N 53°22' E 004°42'714.7
2017-Oct-07 23:00N 53°16' E 004°36'714.6
2017-Oct-07 22:30N 53°09' E 004°30'714.7
2017-Oct-07 22:00N 53°03' E 004°25'714.6
2017-Oct-07 21:30N 52°56' E 004°20'714.5
2017-Oct-07 21:00N 52°50' E 004°15'714.9
2017-Oct-07 20:30N 52°44' E 004°06'815.6
2017-Oct-07 20:00N 52°40' E 003°55'815.9
2017-Oct-07 19:30N 52°36' E 003°44'7717.3
2017-Oct-07 15:01N 51°37' E 002°23'118.6
2017-Oct-07 14:57N 51°35' E 002°21'818.7
2017-Oct-07 14:30N 51°29' E 002°13'918.1
2017-Oct-07 14:00N 51°21' E 002°07'1717.2
2017-Oct-07 13:00N 51°08' E 001°49'1019.8
2017-Oct-07 12:30N 51°01' E 001°38'7017.5
2017-Oct-07 08:31N 50°20' E 000°08'018.4
2017-Oct-07 08:29N 50°20' E 000°07'918.7
2017-Oct-07 08:00N 50°18' W 000°06'918.6
2017-Oct-07 07:30N 50°15' W 000°20'8516.0
2017-Oct-07 02:10N 49°53' W 002°29'1014.1
2017-Oct-07 01:29N 49°51' W 002°43'714.7
2017-Oct-07 01:00N 49°49' W 002°54'815.2
2017-Oct-07 00:30N 49°48' W 003°05'815.5
2017-Oct-07 00:00N 49°47' W 003°17'815.7
2017-Oct-06 23:30N 49°46' W 003°29'815.8
2017-Oct-06 23:00N 49°45' W 003°41'816.0
2017-Oct-06 22:30N 49°44' W 003°54'816.2
2017-Oct-06 22:00N 49°43' W 004°06'816.4
2017-Oct-06 21:30N 49°41' W 004°19'916.7
2017-Oct-06 21:00N 49°40' W 004°32'817.0
2017-Oct-06 20:30N 49°39' W 004°44'917.4
2017-Oct-06 20:00N 49°38' W 004°58'917.9
2017-Oct-06 19:30N 49°38' W 005°11'917.4
2017-Oct-06 19:00N 49°38' W 005°25'917.3
2017-Oct-06 18:30N 49°37' W 005°38'1018.4
2017-Oct-06 17:59N 49°37' W 005°53'918.3
2017-Oct-06 17:29N 49°38' W 006°07'918.5
2017-Oct-06 17:00N 49°38' W 006°21'918.4
2017-Oct-06 16:30N 49°38' W 006°35'918.5
2017-Oct-06 16:00N 49°38' W 006°49'1018.3
2017-Oct-06 15:29N 49°38' W 007°04'918.1
2017-Oct-06 15:00N 49°38' W 007°17'917.9
2017-Oct-06 14:30N 49°38' W 007°31'11016.9
2017-Oct-06 08:01N 49°39' W 010°21'  
Track history (hours):
 
Tides and Currents Weather Stations Pressure Air Temp Water Temp Dewpoint Dewpoint Depression Visibility Wind Speed Wind Dir Waves Ship Positions

Camellia

Last reported at 2017-Oct-14 23:03 UTC. Time now 2017-Oct-17 12:00 UTC.
Position N 49°25' W 010°44'.

Length 222 m; draft 10.5 m.

Type: Ship (hazmat cat A). MMSI: 477791900.

Date/timePositionNaut miles runAvg speedWind from/ knotsBaromVisibWave heightAir tempDewpointWater temp
2017-Oct-14 23:03N 49°25' W 010°44'415.2
2017-Oct-14 22:48N 49°25' W 010°38'515.4
2017-Oct-14 22:29N 49°26' W 010°31'3815.7
2017-Oct-14 20:03N 49°32' W 009°33'115.9
2017-Oct-14 20:00N 49°32' W 009°32'4916.2
2017-Oct-14 16:58N 49°36' W 008°16'1716.0
2017-Oct-14 15:53N 49°38' W 007°49'715.9
2017-Oct-14 15:27N 49°39' W 007°39'915.9
2017-Oct-14 14:52N 49°40' W 007°25'616.0
2017-Oct-14 14:30N 49°41' W 007°16'815.8
2017-Oct-14 14:00N 49°41' W 007°03'2115.7
2017-Oct-14 12:39N 49°43' W 006°31'315.4
2017-Oct-14 12:27N 49°43' W 006°26'815.4
2017-Oct-14 11:58N 49°43' W 006°15'715.5
2017-Oct-14 11:30N 49°43' W 006°04'815.7
2017-Oct-14 11:00N 49°44' W 005°51'815.9
2017-Oct-14 10:30N 49°45' W 005°39'816.1
2017-Oct-14 10:00N 49°45' W 005°27'816.1
2017-Oct-14 09:30N 49°46' W 005°15'815.8
2017-Oct-14 09:00N 49°47' W 005°02'816.4
2017-Oct-14 08:30N 49°48' W 004°50'816.6
2017-Oct-14 08:00N 49°50' W 004°37'816.9
2017-Oct-14 07:30N 49°51' W 004°24'917.1
2017-Oct-14 07:00N 49°53' W 004°11'917.4
2017-Oct-14 06:30N 49°54' W 003°58'918.7
2017-Oct-14 06:00N 49°56' W 003°44'816.9
2017-Oct-14 05:30N 49°57' W 003°31'816.6
2017-Oct-14 05:00N 49°58' W 003°18'816.3
2017-Oct-14 04:30N 49°59' W 003°05'816.0
2017-Oct-14 04:00N 50°01' W 002°53'815.8
2017-Oct-14 03:30N 50°03' W 002°41'815.3
2017-Oct-14 03:00N 50°05' W 002°30'714.9
2017-Oct-14 02:30N 50°07' W 002°18'814.7
2017-Oct-14 01:59N 50°09' W 002°07'1314.8
2017-Oct-14 01:05N 50°12' W 001°47'215.0
2017-Oct-14 00:55N 50°13' W 001°43'615.4
2017-Oct-14 00:30N 50°15' W 001°34'815.9
2017-Oct-14 00:00N 50°17' W 001°22'816.5
2017-Oct-13 23:30N 50°19' W 001°09'917.2
2017-Oct-13 22:58N 50°22' W 000°55'917.6
2017-Oct-13 22:27N 50°24' W 000°41'917.8
2017-Oct-13 21:58N 50°26' W 000°29'817.8
2017-Oct-13 21:30N 50°28' W 000°16'917.8
2017-Oct-13 21:00N 50°31' W 000°02'917.6
2017-Oct-13 20:30N 50°33' E 000°11'917.5
2017-Oct-13 20:00N 50°35' E 000°24'816.7
2017-Oct-13 19:30N 50°38' E 000°36'816.5
2017-Oct-13 19:00N 50°43' E 000°47'815.8
2017-Oct-13 18:30N 50°48' E 000°56'815.3
2017-Oct-13 18:00N 50°53' E 001°06'714.9
2017-Oct-13 17:30N 50°58' E 001°15'714.5
2017-Oct-13 17:00N 51°02' E 001°24'714.5
2017-Oct-13 16:30N 51°07' E 001°33'714.9
2017-Oct-13 16:00N 51°11' E 001°42'815.6
2017-Oct-13 15:30N 51°17' E 001°50'816.3
2017-Oct-13 15:00N 51°24' E 001°57'815.3
2017-Oct-13 14:31N 51°23' E 002°09'815.9
2017-Oct-13 14:00N 51°22' E 002°22'816.5
2017-Oct-13 13:30N 51°23' E 002°35'713.6
2017-Oct-13 13:00N 51°22' E 002°46'816.1
2017-Oct-13 12:31N 51°23' E 002°59'918.4
2017-Oct-13 12:01N 51°24' E 003°13'918.9
2017-Oct-13 11:31N 51°25' E 003°28'611.1
2017-Oct-13 11:00N 51°26' E 003°37'713.0
2017-Oct-13 10:30N 51°22' E 003°45'713.9
2017-Oct-13 10:01N 51°23' E 003°56'4 8.0
2017-Oct-13 09:31N 51°24' E 004°02'612.5
2017-Oct-13 09:01N 51°24' E 004°12'4 6.8
2017-Oct-13 08:29N 51°21' E 004°16'0 0.0
2017-Oct-13 08:01N 51°21' E 004°16'0 0.0
2017-Oct-13 07:31N 51°21' E 004°16'0 0.0
2017-Oct-13 07:01N 51°21' E 004°16'0 0.0
2017-Oct-13 06:31N 51°21' E 004°16'0 0.0
2017-Oct-13 06:01N 51°21' E 004°16'0 0.0
2017-Oct-13 05:31N 51°21' E 004°16'0 0.0
2017-Oct-13 05:01N 51°21' E 004°16'0 0.0
2017-Oct-13 04:31N 51°21' E 004°16'0 0.0
2017-Oct-13 03:59N 51°21' E 004°16'0 0.0
2017-Oct-13 03:31N 51°21' E 004°16'0 0.0
2017-Oct-13 03:01N 51°21' E 004°16'0 0.0
2017-Oct-13 02:31N 51°21' E 004°16'0 0.0
2017-Oct-13 02:01N 51°21' E 004°16'0 0.0
2017-Oct-13 01:31N 51°21' E 004°16'0 0.0
2017-Oct-13 01:01N 51°21' E 004°16'0 0.0
2017-Oct-13 00:31N 51°21' E 004°16'0 0.0
2017-Oct-13 00:00N 51°21' E 004°16'0 0.0
2017-Oct-12 23:30N 51°21' E 004°16'0 0.0
2017-Oct-12 23:01N 51°21' E 004°16'0 0.0
2017-Oct-12 22:31N 51°21' E 004°16'0 0.0
2017-Oct-12 22:01N 51°21' E 004°16'0 0.0
2017-Oct-12 21:30N 51°21' E 004°16'0 0.0
2017-Oct-12 21:00N 51°21' E 004°16'0 0.0
2017-Oct-12 20:30N 51°21' E 004°16'0 0.0
2017-Oct-12 20:00N 51°21' E 004°16'0 0.0
2017-Oct-12 19:28N 51°21' E 004°16'0 0.0
2017-Oct-12 19:00N 51°21' E 004°16'2 4.8
2017-Oct-12 18:30N 51°23' E 004°13'5 9.3
2017-Oct-12 18:00N 51°22' E 004°05'5 9.8
2017-Oct-12 17:30N 51°26' E 004°01'510.5
2017-Oct-12 17:00N 51°22' E 003°55'713.0
2017-Oct-12 16:31N 51°22' E 003°45'612.6
2017-Oct-12 16:00N 51°26' E 003°37'4 8.7
2017-Oct-12 15:30N 51°25' E 003°30'815.8
2017-Oct-12 15:00N 51°24' E 003°17'816.6
2017-Oct-12 14:30N 51°24' E 003°04'612.2
2017-Oct-12 14:00N 51°30' E 003°04'1218.3
2017-Oct-12 13:20N 51°41' E 003°12'3 7.8
2017-Oct-12 12:55N 51°45' E 003°13'2011.2
2017-Oct-12 11:07N 52°03' E 003°26'215.9
2017-Oct-12 11:00N 52°03' E 003°29'815.8
2017-Oct-12 10:30N 52°03' E 003°42'815.3
2017-Oct-12 10:00N 52°02' E 003°54'611.5
2017-Oct-12 09:31N 51°60' E 004°02'2 4.3
2017-Oct-12 09:00N 51°58' E 004°03'0 0.1
2017-Oct-12 08:29N 51°57' E 004°03'0 0.0
2017-Oct-12 07:59N 51°57' E 004°03'0 0.0
2017-Oct-12 07:29N 51°57' E 004°03'0 0.0
2017-Oct-12 06:59N 51°57' E 004°03'0 0.0
2017-Oct-12 06:29N 51°57' E 004°03'0 0.0
2017-Oct-12 05:59N 51°57' E 004°03'0 0.0
2017-Oct-12 05:29N 51°57' E 004°03'0 0.0
2017-Oct-12 04:59N 51°57' E 004°03'0 0.0
2017-Oct-12 04:29N 51°57' E 004°03'0 0.0
2017-Oct-12 03:59N 51°57' E 004°03'0 0.0
2017-Oct-12 03:29N 51°57' E 004°03'0 0.0
2017-Oct-12 02:59N 51°57' E 004°03'0 0.0
2017-Oct-12 02:29N 51°57' E 004°03'0 0.0
2017-Oct-12 01:59N 51°57' E 004°03'0 0.0
2017-Oct-12 01:29N 51°57' E 004°03'0 0.0
2017-Oct-12 00:59N 51°57' E 004°03'0 0.0
2017-Oct-12 00:29N 51°57' E 004°03'0 0.0
2017-Oct-11 23:59N 51°57' E 004°03'0 0.0
2017-Oct-11 23:29N 51°57' E 004°03'0 0.0
2017-Oct-11 22:59N 51°57' E 004°03'0 0.0
2017-Oct-11 22:29N 51°57' E 004°03'0 0.0
2017-Oct-11 21:59N 51°57' E 004°03'0 0.0
2017-Oct-11 21:29N 51°57' E 004°03'0 0.0
2017-Oct-11 20:59N 51°57' E 004°03'0 0.0
2017-Oct-11 20:29N 51°57' E 004°03'0 0.0
2017-Oct-11 19:59N 51°57' E 004°03'0 0.0
2017-Oct-11 19:29N 51°57' E 004°03'0 0.0
2017-Oct-11 18:59N 51°57' E 004°03'0 0.0
2017-Oct-11 18:29N 51°57' E 004°03'0 0.0
2017-Oct-11 17:59N 51°57' E 004°03'0 0.0
2017-Oct-11 17:29N 51°57' E 004°03'0 0.0
2017-Oct-11 16:59N 51°57' E 004°03'107 6.3
2017-Oct-11 00:01N 53°36' E 005°11'714.8
2017-Oct-10 23:30N 53°38' E 005°23'814.7
2017-Oct-10 22:57N 53°41' E 005°36'714.7
2017-Oct-10 22:29N 53°43' E 005°47'6815.8
2017-Oct-10 18:14N 53°60' E 007°38'415.6
2017-Oct-10 18:00N 53°57' E 007°42'714.4
2017-Oct-10 17:30N 53°52' E 007°51'714.8
2017-Oct-10 17:00N 53°51' E 008°03'1020.2
2017-Oct-10 16:30N 53°44' E 008°16'918.8
2017-Oct-10 16:00N 53°38' E 008°28'3 6.0
2017-Oct-10 15:31N 53°35' E 008°31'0 0.0
2017-Oct-10 14:58N 53°35' E 008°31'0 0.0
2017-Oct-10 13:58N 53°35' E 008°31'0 0.0
2017-Oct-10 13:28N 53°35' E 008°31'0 0.0
2017-Oct-10 12:58N 53°35' E 008°31'0 0.0
2017-Oct-10 12:28N 53°35' E 008°31'0 0.0
2017-Oct-10 11:58N 53°35' E 008°31'0 0.0
2017-Oct-10 11:28N 53°35' E 008°31'0 0.0
2017-Oct-10 10:58N 53°35' E 008°31'0 0.0
2017-Oct-10 10:28N 53°35' E 008°31'0 0.0
2017-Oct-10 09:58N 53°35' E 008°31'0 0.0
2017-Oct-10 09:28N 53°35' E 008°31'0 0.0
2017-Oct-10 08:58N 53°35' E 008°31'0 0.0
2017-Oct-10 08:28N 53°35' E 008°31'0 0.0
2017-Oct-10 07:58N 53°35' E 008°31'0 0.0
2017-Oct-10 07:28N 53°35' E 008°31'0 0.0
2017-Oct-10 06:58N 53°35' E 008°31'0 0.0
2017-Oct-10 06:28N 53°35' E 008°31'0 0.0
2017-Oct-10 05:58N 53°35' E 008°31'0 0.0
2017-Oct-10 05:28N 53°35' E 008°31'0 0.0
2017-Oct-10 04:58N 53°35' E 008°31'0 0.0
2017-Oct-10 04:28N 53°35' E 008°31'0 0.0
2017-Oct-10 03:58N 53°35' E 008°31'0 0.1
2017-Oct-10 03:28N 53°35' E 008°31'0 0.0
2017-Oct-10 02:58N 53°35' E 008°31'0 0.0
2017-Oct-10 02:28N 53°35' E 008°31'0 0.0
2017-Oct-10 01:58N 53°35' E 008°31'0 0.0
2017-Oct-10 01:28N 53°35' E 008°31'0 0.0
2017-Oct-10 00:58N 53°35' E 008°31'0 0.0
2017-Oct-10 00:28N 53°35' E 008°31'0 0.0
2017-Oct-09 23:58N 53°35' E 008°31'0 0.0
2017-Oct-09 23:28N 53°35' E 008°31'0 0.0
2017-Oct-09 22:58N 53°35' E 008°31'0 0.0
2017-Oct-09 22:28N 53°35' E 008°31'0 0.0
2017-Oct-09 21:58N 53°35' E 008°31'0 0.0
2017-Oct-09 21:28N 53°35' E 008°31'0 0.0
2017-Oct-09 20:58N 53°35' E 008°31'0 0.0
2017-Oct-09 20:28N 53°35' E 008°31'0 0.0
2017-Oct-09 19:58N 53°35' E 008°31'0 0.0
2017-Oct-09 19:28N 53°35' E 008°31'0 0.0
2017-Oct-09 18:58N 53°35' E 008°31'0 0.0
2017-Oct-09 18:28N 53°35' E 008°31'0 0.0
2017-Oct-09 17:58N 53°35' E 008°31'0 0.4
2017-Oct-09 17:30N 53°36' E 008°31'3 5.8
2017-Oct-09 17:00N 53°38' E 008°28'714.1
2017-Oct-09 16:30N 53°42' E 008°19'714.5
2017-Oct-09 16:00N 53°47' E 008°09'714.4
2017-Oct-09 15:30N 53°51' E 007°59'712.8
2017-Oct-09 14:58N 53°53' E 007°48'1 3.0
2017-Oct-09 14:30N 53°53' E 007°46'2 4.0
2017-Oct-09 13:59N 53°55' E 007°46'1 1.2
2017-Oct-09 13:08N 53°55' E 007°47'0 0.0
2017-Oct-09 12:47N 53°55' E 007°47'0 0.1
2017-Oct-09 12:29N 53°55' E 007°47'0 0.0
2017-Oct-09 11:59N 53°55' E 007°47'0 0.0
2017-Oct-09 10:41N 53°55' E 007°47'0 0.0
2017-Oct-09 10:20N 53°55' E 007°47'0 0.0
2017-Oct-09 09:59N 53°55' E 007°47'0 0.0
2017-Oct-09 09:29N 53°55' E 007°47'0 0.0
2017-Oct-09 08:47N 53°55' E 007°47'0 0.0
2017-Oct-09 08:29N 53°55' E 007°47'0 0.0
2017-Oct-09 07:59N 53°55' E 007°47'0 0.1
2017-Oct-09 07:29N 53°55' E 007°47'0 0.0
2017-Oct-09 06:59N 53°55' E 007°47'0 0.2
2017-Oct-09 06:29N 53°55' E 007°47'0 0.1
2017-Oct-09 05:56N 53°55' E 007°47'0 0.1
2017-Oct-09 05:29N 53°55' E 007°47'0 0.1
2017-Oct-09 04:59N 53°55' E 007°47'0 0.0
2017-Oct-09 04:29N 53°55' E 007°47'0 0.0
2017-Oct-09 03:59N 53°55' E 007°47'0 0.1
2017-Oct-09 03:29N 53°55' E 007°47'0 0.3
2017-Oct-09 02:59N 53°55' E 007°47'0 0.2
2017-Oct-09 02:23N 53°55' E 007°47'0 0.0
2017-Oct-09 01:56N 53°55' E 007°47'0 0.1
2017-Oct-09 01:29N 53°55' E 007°47'0 0.0
2017-Oct-09 00:53N 53°55' E 007°47'0 0.0
2017-Oct-09 00:29N 53°55' E 007°47'0 0.0
2017-Oct-08 23:59N 53°55' E 007°47'0 0.0
2017-Oct-08 23:20N 53°55' E 007°47'0 0.0
2017-Oct-08 22:59N 53°55' E 007°47'0 0.0
2017-Oct-08 22:29N 53°55' E 007°47'0 0.0
2017-Oct-08 21:59N 53°55' E 007°47'0 0.0
2017-Oct-08 21:29N 53°55' E 007°47'0 0.0
2017-Oct-08 20:56N 53°55' E 007°47'0 0.1
2017-Oct-08 20:29N 53°55' E 007°47'0 0.0
2017-Oct-08 19:59N 53°55' E 007°47'0 0.0
2017-Oct-08 19:29N 53°55' E 007°47'0 0.1
2017-Oct-08 18:41N 53°55' E 007°47'0 0.1
2017-Oct-08 18:26N 53°55' E 007°47'0 0.1
2017-Oct-08 17:17N 53°55' E 007°47'0 0.0
2017-Oct-08 14:44N 53°55' E 007°47'0 0.1
2017-Oct-08 14:29N 53°55' E 007°47'0 0.1
2017-Oct-08 13:59N 53°55' E 007°47'0 0.0
2017-Oct-08 13:29N 53°55' E 007°47'0 0.1
2017-Oct-08 12:59N 53°55' E 007°47'0 0.0
2017-Oct-08 12:29N 53°55' E 007°47'0 0.0
2017-Oct-08 11:59N 53°55' E 007°47'0 0.0
2017-Oct-08 11:23N 53°55' E 007°47'0 0.0
2017-Oct-08 10:59N 53°55' E 007°47'0 0.0
2017-Oct-08 10:29N 53°55' E 007°47'0 0.0
2017-Oct-08 09:59N 53°55' E 007°47'0 0.0
2017-Oct-08 09:29N 53°55' E 007°47'0 0.0
2017-Oct-08 08:59N 53°55' E 007°47'0 0.1
2017-Oct-08 08:29N 53°55' E 007°47'0 0.1
2017-Oct-08 07:56N 53°55' E 007°47'0 0.7
2017-Oct-08 07:30N 53°55' E 007°47'4 7.9
2017-Oct-08 06:58N 53°55' E 007°40'714.4
2017-Oct-08 06:30N 53°54' E 007°29'7114.9
2017-Oct-08 01:44N 53°36' E 005°33'315.0
2017-Oct-08 01:30N 53°34' E 005°27'815.1
2017-Oct-08 01:00N 53°32' E 005°16'815.2
2017-Oct-08 00:30N 53°29' E 005°03'815.3
2017-Oct-08 00:00N 53°26' E 004°51'714.2
2017-Oct-07 23:30N 53°22' E 004°42'714.7
2017-Oct-07 23:00N 53°16' E 004°36'714.6
2017-Oct-07 22:30N 53°09' E 004°30'714.7
2017-Oct-07 22:00N 53°03' E 004°25'714.6
2017-Oct-07 21:30N 52°56' E 004°20'714.5
2017-Oct-07 21:00N 52°50' E 004°15'714.9
2017-Oct-07 20:30N 52°44' E 004°06'815.6
2017-Oct-07 20:00N 52°40' E 003°55'815.9
2017-Oct-07 19:30N 52°36' E 003°44'7717.3
2017-Oct-07 15:01N 51°37' E 002°23'118.6
2017-Oct-07 14:57N 51°35' E 002°21'818.7
2017-Oct-07 14:30N 51°29' E 002°13'918.1
2017-Oct-07 14:00N 51°21' E 002°07'1717.2
2017-Oct-07 13:00N 51°08' E 001°49'1019.8
2017-Oct-07 12:30N 51°01' E 001°38'7017.5
2017-Oct-07 08:31N 50°20' E 000°08'018.4
2017-Oct-07 08:29N 50°20' E 000°07'918.7
2017-Oct-07 08:00N 50°18' W 000°06'918.6
2017-Oct-07 07:30N 50°15' W 000°20'8516.0
2017-Oct-07 02:10N 49°53' W 002°29'1014.1
2017-Oct-07 01:29N 49°51' W 002°43'714.7
2017-Oct-07 01:00N 49°49' W 002°54'815.2
2017-Oct-07 00:30N 49°48' W 003°05'815.5
2017-Oct-07 00:00N 49°47' W 003°17'815.7
2017-Oct-06 23:30N 49°46' W 003°29'815.8
2017-Oct-06 23:00N 49°45' W 003°41'816.0
2017-Oct-06 22:30N 49°44' W 003°54'816.2
2017-Oct-06 22:00N 49°43' W 004°06'816.4
2017-Oct-06 21:30N 49°41' W 004°19'916.7
2017-Oct-06 21:00N 49°40' W 004°32'817.0
2017-Oct-06 20:30N 49°39' W 004°44'917.4
2017-Oct-06 20:00N 49°38' W 004°58'917.9
2017-Oct-06 19:30N 49°38' W 005°11'917.4
2017-Oct-06 19:00N 49°38' W 005°25'917.3
2017-Oct-06 18:30N 49°37' W 005°38'1018.4
2017-Oct-06 17:59N 49°37' W 005°53'918.3
2017-Oct-06 17:29N 49°38' W 006°07'918.5
2017-Oct-06 17:00N 49°38' W 006°21'918.4
2017-Oct-06 16:30N 49°38' W 006°35'918.5
2017-Oct-06 16:00N 49°38' W 006°49'1018.3
2017-Oct-06 15:29N 49°38' W 007°04'918.1
2017-Oct-06 15:00N 49°38' W 007°17'917.9
2017-Oct-06 14:30N 49°38' W 007°31'11016.9
2017-Oct-06 08:01N 49°39' W 010°21'  

Dump ship's entire track history